sensor_id;sensor_type;location;lat;lon;timestamp;pressure;altitude;pressure_sealevel;temperature;humidity
23643;BME280;11998;55.788;37.572;2023-04-22T00:00:23;98247.22;;;67.71;5.34
23643;BME280;11998;55.788;37.572;2023-04-22T00:01:23;98228.44;;;66.26;6.02
23643;BME280;11998;55.788;37.572;2023-04-22T00:02:24;98240.03;;;65.95;5.87
23643;BME280;11998;55.788;37.572;2023-04-22T00:03:26;98240.00;;;67.19;5.46
23643;BME280;11998;55.788;37.572;2023-04-22T00:04:28;98240.03;;;65.95;6.03
23643;BME280;11998;55.788;37.572;2023-04-22T00:05:29;98233.91;;;64.80;6.28
23643;BME280;11998;55.788;37.572;2023-04-22T00:06:29;98240.94;;;64.79;6.06
23643;BME280;11998;55.788;37.572;2023-04-22T00:07:31;98240.03;;;66.96;5.56
23643;BME280;11998;55.788;37.572;2023-04-22T00:08:31;98236.91;;;65.48;6.12
23643;BME280;11998;55.788;37.572;2023-04-22T00:09:32;98242.31;;;66.07;5.69
23643;BME280;11998;55.788;37.572;2023-04-22T00:10:33;98241.22;;;67.22;5.82
23643;BME280;11998;55.788;37.572;2023-04-22T00:11:33;98250.59;;;66.83;5.91
23643;BME280;11998;55.788;37.572;2023-04-22T00:12:34;98239.63;;;67.17;5.48
23643;BME280;11998;55.788;37.572;2023-04-22T00:13:35;98242.28;;;67.08;5.54
23643;BME280;11998;55.788;37.572;2023-04-22T00:14:36;98249.53;;;66.73;5.77
23643;BME280;11998;55.788;37.572;2023-04-22T00:15:37;98256.72;;;68.43;5.30
23643;BME280;11998;55.788;37.572;2023-04-22T00:16:38;98258.78;;;67.91;5.25
23643;BME280;11998;55.788;37.572;2023-04-22T00:17:39;98256.13;;;68.00;5.38
23643;BME280;11998;55.788;37.572;2023-04-22T00:18:40;98257.34;;;67.63;5.59
23643;BME280;11998;55.788;37.572;2023-04-22T00:19:40;98251.16;;;67.41;5.59
23643;BME280;11998;55.788;37.572;2023-04-22T00:20:42;98251.69;;;67.75;5.28
23643;BME280;11998;55.788;37.572;2023-04-22T00:21:43;98252.00;;;67.61;5.37
23643;BME280;11998;55.788;37.572;2023-04-22T00:22:43;98248.19;;;67.44;5.32
23643;BME280;11998;55.788;37.572;2023-04-22T00:23:44;98257.78;;;67.61;5.45
23643;BME280;11998;55.788;37.572;2023-04-22T00:24:46;98246.31;;;67.14;5.55
23643;BME280;11998;55.788;37.572;2023-04-22T00:25:46;98242.16;;;66.45;5.60
23643;BME280;11998;55.788;37.572;2023-04-22T00:26:47;98243.72;;;65.61;5.86
23643;BME280;11998;55.788;37.572;2023-04-22T00:27:48;98251.25;;;66.16;5.61
23643;BME280;11998;55.788;37.572;2023-04-22T00:28:49;98246.50;;;66.57;5.77
23643;BME280;11998;55.788;37.572;2023-04-22T00:29:49;98240.78;;;65.99;5.85
23643;BME280;11998;55.788;37.572;2023-04-22T00:30:50;98250.50;;;66.12;5.57
23643;BME280;11998;55.788;37.572;2023-04-22T00:31:51;98263.41;;;67.68;5.38
23643;BME280;11998;55.788;37.572;2023-04-22T00:32:52;98250.34;;;66.50;5.70
23643;BME280;11998;55.788;37.572;2023-04-22T00:33:52;98239.97;;;65.38;5.71
23643;BME280;11998;55.788;37.572;2023-04-22T00:34:53;98253.88;;;65.43;6.01
23643;BME280;11998;55.788;37.572;2023-04-22T00:35:53;98253.72;;;66.68;5.57
23643;BME280;11998;55.788;37.572;2023-04-22T00:36:54;98248.91;;;66.62;5.98
23643;BME280;11998;55.788;37.572;2023-04-22T00:37:55;98248.78;;;66.18;6.09
23643;BME280;11998;55.788;37.572;2023-04-22T00:38:56;98243.41;;;66.44;5.74
23643;BME280;11998;55.788;37.572;2023-04-22T00:39:56;98247.50;;;66.46;5.89
23643;BME280;11998;55.788;37.572;2023-04-22T00:40:58;98246.34;;;67.11;5.50
23643;BME280;11998;55.788;37.572;2023-04-22T00:41:59;98246.97;;;67.02;5.82
23643;BME280;11998;55.788;37.572;2023-04-22T00:42:59;98250.03;;;67.35;5.40
23643;BME280;11998;55.788;37.572;2023-04-22T00:44:04;98239.22;;;66.95;5.57
23643;BME280;11998;55.788;37.572;2023-04-22T00:45:09;98249.13;;;66.94;5.48
23643;BME280;11998;55.788;37.572;2023-04-22T00:46:09;98250.41;;;68.65;5.21
23643;BME280;11998;55.788;37.572;2023-04-22T00:47:11;98243.84;;;67.92;5.32
23643;BME280;11998;55.788;37.572;2023-04-22T00:48:12;98253.09;;;67.47;5.49
23643;BME280;11998;55.788;37.572;2023-04-22T00:49:13;98253.38;;;67.73;5.63
23643;BME280;11998;55.788;37.572;2023-04-22T00:50:15;98244.81;;;67.85;5.33
23643;BME280;11998;55.788;37.572;2023-04-22T00:51:16;98249.16;;;67.38;5.50
23643;BME280;11998;55.788;37.572;2023-04-22T00:52:17;98247.34;;;67.04;5.72
23643;BME280;11998;55.788;37.572;2023-04-22T00:53:17;98240.91;;;66.93;5.48
23643;BME280;11998;55.788;37.572;2023-04-22T00:54:18;98233.50;;;65.91;5.87
23643;BME280;11998;55.788;37.572;2023-04-22T00:55:22;98239.97;;;64.44;5.91
23643;BME280;11998;55.788;37.572;2023-04-22T00:56:25;98234.97;;;66.03;5.92
23643;BME280;11998;55.788;37.572;2023-04-22T00:57:28;98239.81;;;65.79;5.87
23643;BME280;11998;55.788;37.572;2023-04-22T00:58:30;98244.09;;;65.33;6.13
23643;BME280;11998;55.788;37.572;2023-04-22T00:59:31;98241.72;;;65.58;6.01
23643;BME280;11998;55.788;37.572;2023-04-22T01:00:31;98234.28;;;65.27;5.72
23643;BME280;11998;55.788;37.572;2023-04-22T01:01:32;98239.44;;;65.77;6.10
23643;BME280;11998;55.788;37.572;2023-04-22T01:02:32;98241.03;;;66.86;5.61
23643;BME280;11998;55.788;37.572;2023-04-22T01:03:35;98237.41;;;66.04;5.64
23643;BME280;11998;55.788;37.572;2023-04-22T01:04:38;98240.66;;;66.60;5.68
23643;BME280;11998;55.788;37.572;2023-04-22T01:05:40;98231.25;;;66.02;5.79
23643;BME280;11998;55.788;37.572;2023-04-22T01:06:42;98224.88;;;66.14;5.83
23643;BME280;11998;55.788;37.572;2023-04-22T01:07:43;98236.28;;;66.25;5.77
23643;BME280;11998;55.788;37.572;2023-04-22T01:08:45;98233.19;;;65.51;6.16
23643;BME280;11998;55.788;37.572;2023-04-22T01:09:46;98230.91;;;65.32;5.99
23643;BME280;11998;55.788;37.572;2023-04-22T01:10:46;98233.28;;;66.05;5.81
23643;BME280;11998;55.788;37.572;2023-04-22T01:11:47;98234.88;;;66.60;5.53
23643;BME280;11998;55.788;37.572;2023-04-22T01:12:47;98228.97;;;66.67;5.51
23643;BME280;11998;55.788;37.572;2023-04-22T01:13:48;98237.16;;;66.72;5.52
23643;BME280;11998;55.788;37.572;2023-04-22T01:14:48;98237.53;;;66.51;5.67
23643;BME280;11998;55.788;37.572;2023-04-22T01:15:50;98235.16;;;66.69;5.73
23643;BME280;11998;55.788;37.572;2023-04-22T01:16:51;98231.50;;;66.11;5.97
23643;BME280;11998;55.788;37.572;2023-04-22T01:17:53;98231.56;;;65.47;5.71
23643;BME280;11998;55.788;37.572;2023-04-22T01:18:54;98230.97;;;66.47;5.81
23643;BME280;11998;55.788;37.572;2023-04-22T01:19:54;98236.38;;;65.91;5.84
23643;BME280;11998;55.788;37.572;2023-04-22T01:20:55;98235.59;;;67.11;5.70
23643;BME280;11998;55.788;37.572;2023-04-22T01:21:57;98238.53;;;66.88;5.49
23643;BME280;11998;55.788;37.572;2023-04-22T01:23:01;98233.63;;;66.85;5.57
23643;BME280;11998;55.788;37.572;2023-04-22T01:24:03;98235.66;;;66.88;5.53
23643;BME280;11998;55.788;37.572;2023-04-22T01:25:04;98244.50;;;67.64;5.31
23643;BME280;11998;55.788;37.572;2023-04-22T01:26:07;98236.63;;;68.53;5.24
23643;BME280;11998;55.788;37.572;2023-04-22T01:27:08;98238.59;;;68.23;5.09
23643;BME280;11998;55.788;37.572;2023-04-22T01:28:09;98238.97;;;67.89;5.59
23643;BME280;11998;55.788;37.572;2023-04-22T01:29:09;98229.19;;;68.68;4.97
23643;BME280;11998;55.788;37.572;2023-04-22T01:30:10;98244.88;;;68.87;5.06
23643;BME280;11998;55.788;37.572;2023-04-22T01:31:11;98234.97;;;68.84;5.24
23643;BME280;11998;55.788;37.572;2023-04-22T01:32:12;98224.84;;;68.60;5.25
23643;BME280;11998;55.788;37.572;2023-04-22T01:33:14;98236.31;;;68.47;5.26
23643;BME280;11998;55.788;37.572;2023-04-22T01:34:14;98240.03;;;68.15;5.32
23643;BME280;11998;55.788;37.572;2023-04-22T01:35:15;98231.31;;;68.96;5.40
23643;BME280;11998;55.788;37.572;2023-04-22T01:36:16;98236.13;;;69.61;5.10
23643;BME280;11998;55.788;37.572;2023-04-22T01:37:17;98233.56;;;68.76;5.22
23643;BME280;11998;55.788;37.572;2023-04-22T01:38:17;98235.59;;;69.21;5.31
23643;BME280;11998;55.788;37.572;2023-04-22T01:39:18;98228.72;;;68.69;5.03
23643;BME280;11998;55.788;37.572;2023-04-22T01:40:19;98227.94;;;67.24;5.41
23643;BME280;11998;55.788;37.572;2023-04-22T01:41:22;98229.09;;;67.47;5.63
23643;BME280;11998;55.788;37.572;2023-04-22T01:42:23;98221.84;;;67.39;5.46
23643;BME280;11998;55.788;37.572;2023-04-22T01:43:24;98232.81;;;69.46;5.08
23643;BME280;11998;55.788;37.572;2023-04-22T01:44:25;98237.47;;;70.24;5.01
23643;BME280;11998;55.788;37.572;2023-04-22T01:45:26;98231.09;;;70.29;4.77
23643;BME280;11998;55.788;37.572;2023-04-22T01:46:27;98238.88;;;70.06;4.92
23643;BME280;11998;55.788;37.572;2023-04-22T01:47:28;98244.31;;;69.92;5.09
23643;BME280;11998;55.788;37.572;2023-04-22T01:48:28;98229.69;;;69.12;5.39
23643;BME280;11998;55.788;37.572;2023-04-22T01:49:29;98236.50;;;69.34;5.10
23643;BME280;11998;55.788;37.572;2023-04-22T01:50:30;98241.53;;;69.17;5.14
23643;BME280;11998;55.788;37.572;2023-04-22T01:51:31;98236.53;;;69.18;5.15
23643;BME280;11998;55.788;37.572;2023-04-22T01:52:32;98237.94;;;69.97;5.09
23643;BME280;11998;55.788;37.572;2023-04-22T01:53:32;98245.19;;;69.34;5.32
23643;BME280;11998;55.788;37.572;2023-04-22T01:54:33;98235.53;;;68.63;5.46
23643;BME280;11998;55.788;37.572;2023-04-22T01:55:34;98239.72;;;68.78;5.49
23643;BME280;11998;55.788;37.572;2023-04-22T01:56:36;98235.63;;;68.27;5.61
23643;BME280;11998;55.788;37.572;2023-04-22T01:57:39;98235.72;;;68.88;5.16
23643;BME280;11998;55.788;37.572;2023-04-22T01:58:40;98237.16;;;68.31;5.49
23643;BME280;11998;55.788;37.572;2023-04-22T01:59:41;98242.38;;;68.20;5.25
23643;BME280;11998;55.788;37.572;2023-04-22T02:00:42;98233.66;;;67.48;5.43
23643;BME280;11998;55.788;37.572;2023-04-22T02:01:43;98238.38;;;68.50;5.43
23643;BME280;11998;55.788;37.572;2023-04-22T02:02:43;98244.41;;;67.67;5.48
23643;BME280;11998;55.788;37.572;2023-04-22T02:03:44;98240.19;;;68.08;5.26
23643;BME280;11998;55.788;37.572;2023-04-22T02:04:44;98233.47;;;68.63;5.30
23643;BME280;11998;55.788;37.572;2023-04-22T02:05:45;98232.69;;;67.74;5.48
23643;BME280;11998;55.788;37.572;2023-04-22T02:06:45;98235.88;;;67.40;5.59
23643;BME280;11998;55.788;37.572;2023-04-22T02:07:46;98229.28;;;67.40;5.58
23643;BME280;11998;55.788;37.572;2023-04-22T02:08:50;98238.44;;;67.94;5.63
23643;BME280;11998;55.788;37.572;2023-04-22T02:09:51;98233.91;;;69.23;5.05
23643;BME280;11998;55.788;37.572;2023-04-22T02:10:51;98235.25;;;69.35;5.39
23643;BME280;11998;55.788;37.572;2023-04-22T02:11:52;98237.41;;;67.84;5.55
23643;BME280;11998;55.788;37.572;2023-04-22T02:12:52;98233.19;;;68.58;5.30
23643;BME280;11998;55.788;37.572;2023-04-22T02:13:53;98239.28;;;69.09;5.28
23643;BME280;11998;55.788;37.572;2023-04-22T02:14:54;98239.94;;;67.82;5.58
23643;BME280;11998;55.788;37.572;2023-04-22T02:15:54;98240.84;;;68.15;5.39
23643;BME280;11998;55.788;37.572;2023-04-22T02:16:55;98240.25;;;67.28;5.58
23643;BME280;11998;55.788;37.572;2023-04-22T02:17:56;98235.56;;;67.35;5.63
23643;BME280;11998;55.788;37.572;2023-04-22T02:18:56;98230.63;;;67.75;5.48
23643;BME280;11998;55.788;37.572;2023-04-22T02:19:57;98236.31;;;68.47;5.57
23643;BME280;11998;55.788;37.572;2023-04-22T02:20:57;98237.63;;;68.62;5.54
23643;BME280;11998;55.788;37.572;2023-04-22T02:21:58;98240.25;;;68.40;5.34
23643;BME280;11998;55.788;37.572;2023-04-22T02:22:59;98226.38;;;67.79;5.69
23643;BME280;11998;55.788;37.572;2023-04-22T02:23:59;98235.06;;;67.96;5.46
23643;BME280;11998;55.788;37.572;2023-04-22T02:25:00;98232.78;;;68.07;5.45
23643;BME280;11998;55.788;37.572;2023-04-22T02:26:01;98233.16;;;68.90;5.30
23643;BME280;11998;55.788;37.572;2023-04-22T02:27:03;98238.06;;;67.92;5.44
23643;BME280;11998;55.788;37.572;2023-04-22T02:28:03;98232.38;;;68.25;5.23
23643;BME280;11998;55.788;37.572;2023-04-22T02:29:04;98234.44;;;67.68;5.51
23643;BME280;11998;55.788;37.572;2023-04-22T02:30:06;98223.69;;;66.86;5.69
23643;BME280;11998;55.788;37.572;2023-04-22T02:31:07;98220.72;;;66.15;5.62
23643;BME280;11998;55.788;37.572;2023-04-22T02:32:08;98225.72;;;65.54;6.07
23643;BME280;11998;55.788;37.572;2023-04-22T02:33:08;98218.63;;;65.58;5.93
23643;BME280;11998;55.788;37.572;2023-04-22T02:34:09;98216.38;;;65.73;6.10
23643;BME280;11998;55.788;37.572;2023-04-22T02:35:10;98216.44;;;66.27;5.48
23643;BME280;11998;55.788;37.572;2023-04-22T02:36:10;98225.66;;;65.57;6.10
23643;BME280;11998;55.788;37.572;2023-04-22T02:37:11;98225.47;;;65.03;6.30
23643;BME280;11998;55.788;37.572;2023-04-22T02:38:12;98224.53;;;66.36;5.86
23643;BME280;11998;55.788;37.572;2023-04-22T02:39:12;98224.84;;;65.57;5.78
23643;BME280;11998;55.788;37.572;2023-04-22T02:40:13;98223.94;;;65.64;5.78
23643;BME280;11998;55.788;37.572;2023-04-22T02:41:13;98227.91;;;65.77;6.20
23643;BME280;11998;55.788;37.572;2023-04-22T02:42:14;98226.41;;;66.23;6.06
23643;BME280;11998;55.788;37.572;2023-04-22T02:43:15;98222.25;;;66.24;5.80
23643;BME280;11998;55.788;37.572;2023-04-22T02:44:15;98227.94;;;65.73;5.92
23643;BME280;11998;55.788;37.572;2023-04-22T02:45:19;98222.00;;;65.84;5.94
23643;BME280;11998;55.788;37.572;2023-04-22T02:46:20;98223.09;;;66.24;5.66
23643;BME280;11998;55.788;37.572;2023-04-22T02:47:22;98226.34;;;65.99;6.22
23643;BME280;11998;55.788;37.572;2023-04-22T02:48:23;98230.66;;;66.41;5.81
23643;BME280;11998;55.788;37.572;2023-04-22T02:49:24;98228.06;;;66.74;5.74
23643;BME280;11998;55.788;37.572;2023-04-22T02:50:25;98231.38;;;66.72;5.88
23643;BME280;11998;55.788;37.572;2023-04-22T02:51:25;98230.44;;;66.29;5.81
23643;BME280;11998;55.788;37.572;2023-04-22T02:52:26;98231.41;;;66.69;5.74
23643;BME280;11998;55.788;37.572;2023-04-22T02:53:27;98229.22;;;66.53;5.87
23643;BME280;11998;55.788;37.572;2023-04-22T02:54:27;98232.38;;;66.08;6.06
23643;BME280;11998;55.788;37.572;2023-04-22T02:55:28;98235.53;;;66.71;5.64
23643;BME280;11998;55.788;37.572;2023-04-22T02:56:29;98230.88;;;66.54;5.75
23643;BME280;11998;55.788;37.572;2023-04-22T02:57:30;98241.09;;;66.82;5.79
23643;BME280;11998;55.788;37.572;2023-04-22T02:58:31;98238.97;;;66.63;5.49
23643;BME280;11998;55.788;37.572;2023-04-22T02:59:31;98231.56;;;67.28;5.52
23643;BME280;11998;55.788;37.572;2023-04-22T03:00:34;98232.59;;;66.48;5.57
23643;BME280;11998;55.788;37.572;2023-04-22T03:01:34;98237.28;;;66.11;5.86
23643;BME280;11998;55.788;37.572;2023-04-22T03:02:35;98233.97;;;66.13;5.83
23643;BME280;11998;55.788;37.572;2023-04-22T03:03:36;98238.78;;;66.97;5.47
23643;BME280;11998;55.788;37.572;2023-04-22T03:04:36;98236.66;;;66.78;5.78
23643;BME280;11998;55.788;37.572;2023-04-22T03:05:37;98239.63;;;66.74;5.49
23643;BME280;11998;55.788;37.572;2023-04-22T03:06:37;98234.66;;;64.91;5.90
23643;BME280;11998;55.788;37.572;2023-04-22T03:07:38;98236.38;;;65.57;6.08
23643;BME280;11998;55.788;37.572;2023-04-22T03:08:38;98243.84;;;66.15;5.87
23643;BME280;11998;55.788;37.572;2023-04-22T03:09:39;98236.50;;;66.61;5.68
23643;BME280;11998;55.788;37.572;2023-04-22T03:10:39;98241.91;;;66.59;5.78
23643;BME280;11998;55.788;37.572;2023-04-22T03:11:40;98236.13;;;67.06;5.72
23643;BME280;11998;55.788;37.572;2023-04-22T03:12:40;98244.09;;;67.81;5.64
23643;BME280;11998;55.788;37.572;2023-04-22T03:13:41;98245.16;;;67.31;5.67
23643;BME280;11998;55.788;37.572;2023-04-22T03:14:42;98243.38;;;67.38;5.74
23643;BME280;11998;55.788;37.572;2023-04-22T03:15:42;98237.59;;;67.38;5.76
23643;BME280;11998;55.788;37.572;2023-04-22T03:16:43;98252.88;;;70.84;4.80
23643;BME280;11998;55.788;37.572;2023-04-22T03:17:44;98247.19;;;70.81;4.76
23643;BME280;11998;55.788;37.572;2023-04-22T03:18:44;98246.03;;;69.35;5.20
23643;BME280;11998;55.788;37.572;2023-04-22T03:19:45;98241.25;;;69.28;5.16
23643;BME280;11998;55.788;37.572;2023-04-22T03:20:46;98247.34;;;70.39;5.00
23643;BME280;11998;55.788;37.572;2023-04-22T03:21:47;98247.63;;;69.65;5.21
23643;BME280;11998;55.788;37.572;2023-04-22T03:22:47;98241.34;;;70.81;5.01
23643;BME280;11998;55.788;37.572;2023-04-22T03:23:48;98251.72;;;69.80;4.96
23643;BME280;11998;55.788;37.572;2023-04-22T03:24:48;98248.03;;;69.79;5.37
23643;BME280;11998;55.788;37.572;2023-04-22T03:25:49;98250.41;;;69.55;5.18
23643;BME280;11998;55.788;37.572;2023-04-22T03:26:50;98263.84;;;70.17;4.88
23643;BME280;11998;55.788;37.572;2023-04-22T03:27:50;98254.75;;;71.47;4.64
23643;BME280;11998;55.788;37.572;2023-04-22T03:28:51;98265.44;;;71.72;4.93
23643;BME280;11998;55.788;37.572;2023-04-22T03:29:51;98262.84;;;71.52;4.86
23643;BME280;11998;55.788;37.572;2023-04-22T03:30:52;98257.22;;;72.11;4.75
23643;BME280;11998;55.788;37.572;2023-04-22T03:31:52;98263.56;;;71.88;4.67
23643;BME280;11998;55.788;37.572;2023-04-22T03:32:53;98263.19;;;69.71;5.07
23643;BME280;11998;55.788;37.572;2023-04-22T03:33:53;98264.81;;;67.80;5.49
23643;BME280;11998;55.788;37.572;2023-04-22T03:34:54;98253.25;;;66.97;5.88
23643;BME280;11998;55.788;37.572;2023-04-22T03:35:55;98256.84;;;69.89;5.22
23643;BME280;11998;55.788;37.572;2023-04-22T03:36:55;98266.28;;;70.56;4.79
23643;BME280;11998;55.788;37.572;2023-04-22T03:37:56;98259.16;;;69.10;5.30
23643;BME280;11998;55.788;37.572;2023-04-22T03:38:56;98264.53;;;70.84;5.05
23643;BME280;11998;55.788;37.572;2023-04-22T03:39:57;98276.78;;;71.58;5.13
23643;BME280;11998;55.788;37.572;2023-04-22T03:40:57;98272.72;;;71.99;4.83
23643;BME280;11998;55.788;37.572;2023-04-22T03:41:58;98275.38;;;72.55;4.58
23643;BME280;11998;55.788;37.572;2023-04-22T03:42:58;98282.97;;;72.53;4.51
23643;BME280;11998;55.788;37.572;2023-04-22T03:44:02;98280.78;;;73.76;4.37
23643;BME280;11998;55.788;37.572;2023-04-22T03:45:03;98281.56;;;74.70;4.02
23643;BME280;11998;55.788;37.572;2023-04-22T03:46:03;98281.34;;;75.21;4.14
23643;BME280;11998;55.788;37.572;2023-04-22T03:47:04;98279.19;;;75.07;4.16
23643;BME280;11998;55.788;37.572;2023-04-22T03:48:05;98282.34;;;76.37;3.76
23643;BME280;11998;55.788;37.572;2023-04-22T03:49:08;98279.97;;;76.20;3.57
23643;BME280;11998;55.788;37.572;2023-04-22T03:50:09;98292.81;;;76.78;3.81
23643;BME280;11998;55.788;37.572;2023-04-22T03:51:10;98294.47;;;76.79;3.64
23643;BME280;11998;55.788;37.572;2023-04-22T03:52:11;98290.88;;;77.57;3.71
23643;BME280;11998;55.788;37.572;2023-04-22T03:53:11;98293.69;;;77.45;3.86
23643;BME280;11998;55.788;37.572;2023-04-22T03:54:12;98291.16;;;76.37;4.08
23643;BME280;11998;55.788;37.572;2023-04-22T03:55:13;98301.09;;;76.95;3.54
23643;BME280;11998;55.788;37.572;2023-04-22T03:56:13;98307.56;;;78.28;3.81
23643;BME280;11998;55.788;37.572;2023-04-22T03:57:14;98300.81;;;79.13;3.58
23643;BME280;11998;55.788;37.572;2023-04-22T03:58:17;98298.34;;;79.01;3.28
23643;BME280;11998;55.788;37.572;2023-04-22T03:59:18;98301.53;;;80.07;3.35
23643;BME280;11998;55.788;37.572;2023-04-22T04:00:18;98295.34;;;80.11;3.05
23643;BME280;11998;55.788;37.572;2023-04-22T04:01:19;98305.25;;;80.24;3.11
23643;BME280;11998;55.788;37.572;2023-04-22T04:02:20;98313.19;;;80.74;3.03
23643;BME280;11998;55.788;37.572;2023-04-22T04:03:20;98309.16;;;80.83;3.30
23643;BME280;11998;55.788;37.572;2023-04-22T04:04:23;98304.47;;;79.96;3.17
23643;BME280;11998;55.788;37.572;2023-04-22T04:05:24;98303.34;;;80.38;3.25
23643;BME280;11998;55.788;37.572;2023-04-22T04:06:24;98306.25;;;81.24;2.97
23643;BME280;11998;55.788;37.572;2023-04-22T04:07:27;98318.81;;;81.42;3.15
23643;BME280;11998;55.788;37.572;2023-04-22T04:08:28;98312.03;;;81.00;2.85
23643;BME280;11998;55.788;37.572;2023-04-22T04:09:28;98313.09;;;81.08;3.22
23643;BME280;11998;55.788;37.572;2023-04-22T04:10:29;98321.41;;;82.22;2.74
23643;BME280;11998;55.788;37.572;2023-04-22T04:11:30;98324.38;;;82.95;2.80
23643;BME280;11998;55.788;37.572;2023-04-22T04:12:30;98329.16;;;83.74;2.83
23643;BME280;11998;55.788;37.572;2023-04-22T04:13:31;98318.63;;;83.22;2.73
23643;BME280;11998;55.788;37.572;2023-04-22T04:14:31;98322.66;;;84.07;2.69
23643;BME280;11998;55.788;37.572;2023-04-22T04:15:32;98321.59;;;82.00;2.81
23643;BME280;11998;55.788;37.572;2023-04-22T04:16:34;98314.91;;;81.99;3.11
23643;BME280;11998;55.788;37.572;2023-04-22T04:17:35;98326.06;;;83.47;2.63
23643;BME280;11998;55.788;37.572;2023-04-22T04:18:37;98321.41;;;82.95;2.80
23643;BME280;11998;55.788;37.572;2023-04-22T04:19:41;98314.63;;;80.40;3.10
23643;BME280;11998;55.788;37.572;2023-04-22T04:20:41;98314.41;;;80.04;3.36
23643;BME280;11998;55.788;37.572;2023-04-22T04:21:42;98322.75;;;82.94;2.74
23643;BME280;11998;55.788;37.572;2023-04-22T04:22:42;98308.63;;;80.85;3.18
23643;BME280;11998;55.788;37.572;2023-04-22T04:23:46;98295.34;;;80.22;3.00
23643;BME280;11998;55.788;37.572;2023-04-22T04:24:47;98323.25;;;82.98;2.99
23643;BME280;11998;55.788;37.572;2023-04-22T04:25:48;98323.22;;;82.31;2.81
23643;BME280;11998;55.788;37.572;2023-04-22T04:26:49;98318.84;;;82.62;3.00
23643;BME280;11998;55.788;37.572;2023-04-22T04:27:50;98331.78;;;83.26;2.86
23643;BME280;11998;55.788;37.572;2023-04-22T04:28:51;98315.22;;;83.87;2.88
23643;BME280;11998;55.788;37.572;2023-04-22T04:29:51;98322.50;;;84.71;2.50
23643;BME280;11998;55.788;37.572;2023-04-22T04:30:52;98321.84;;;84.52;2.76
23643;BME280;11998;55.788;37.572;2023-04-22T04:31:53;98328.78;;;83.96;2.93
23643;BME280;11998;55.788;37.572;2023-04-22T04:32:54;98319.53;;;84.32;2.33
23643;BME280;11998;55.788;37.572;2023-04-22T04:33:55;98313.19;;;82.09;2.99
23643;BME280;11998;55.788;37.572;2023-04-22T04:34:56;98323.47;;;83.25;2.62
23643;BME280;11998;55.788;37.572;2023-04-22T04:35:57;98330.81;;;85.13;2.38
23643;BME280;11998;55.788;37.572;2023-04-22T04:36:57;98317.75;;;82.65;2.65
23643;BME280;11998;55.788;37.572;2023-04-22T04:37:58;98333.34;;;85.43;2.36
23643;BME280;11998;55.788;37.572;2023-04-22T04:38:58;98333.38;;;86.83;2.41
23643;BME280;11998;55.788;37.572;2023-04-22T04:39:59;98331.53;;;87.09;2.23
23643;BME280;11998;55.788;37.572;2023-04-22T04:41:02;98335.75;;;87.88;2.06
23643;BME280;11998;55.788;37.572;2023-04-22T04:42:03;98327.72;;;88.59;2.14
23643;BME280;11998;55.788;37.572;2023-04-22T04:43:04;98321.34;;;90.43;1.77
23643;BME280;11998;55.788;37.572;2023-04-22T04:44:08;98312.47;;;94.35;1.45
23643;BME280;11998;55.788;37.572;2023-04-22T04:45:09;98290.22;;;93.66;1.47
23643;BME280;11998;55.788;37.572;2023-04-22T04:46:11;98288.44;;;92.92;1.43
23643;BME280;11998;55.788;37.572;2023-04-22T04:47:11;98287.75;;;93.12;1.77
23643;BME280;11998;55.788;37.572;2023-04-22T04:48:13;98280.66;;;92.01;1.64
23643;BME280;11998;55.788;37.572;2023-04-22T04:49:14;98290.97;;;92.95;1.62
23643;BME280;11998;55.788;37.572;2023-04-22T04:50:16;98277.06;;;92.22;1.66
23643;BME280;11998;55.788;37.572;2023-04-22T04:51:16;98273.44;;;90.60;1.78
23643;BME280;11998;55.788;37.572;2023-04-22T04:52:17;98283.13;;;91.39;1.81
23643;BME280;11998;55.788;37.572;2023-04-22T04:53:21;98283.84;;;92.42;1.68
23643;BME280;11998;55.788;37.572;2023-04-22T04:54:22;98296.03;;;92.83;1.81
23643;BME280;11998;55.788;37.572;2023-04-22T04:55:22;98277.84;;;91.03;1.84
23643;BME280;11998;55.788;37.572;2023-04-22T04:56:23;98293.53;;;93.30;1.52
23643;BME280;11998;55.788;37.572;2023-04-22T04:57:23;98275.97;;;90.29;1.82
23643;BME280;11998;55.788;37.572;2023-04-22T04:58:24;98264.69;;;88.47;2.28
23643;BME280;11998;55.788;37.572;2023-04-22T04:59:25;98283.25;;;90.87;1.90
23643;BME280;11998;55.788;37.572;2023-04-22T05:00:25;98287.00;;;92.25;1.90
23643;BME280;11998;55.788;37.572;2023-04-22T05:01:26;98265.75;;;89.22;1.98
23643;BME280;11998;55.788;37.572;2023-04-22T05:02:27;98285.53;;;91.51;1.76
23643;BME280;11998;55.788;37.572;2023-04-22T05:03:27;98288.50;;;91.87;1.77
23643;BME280;11998;55.788;37.572;2023-04-22T05:04:28;98287.31;;;91.63;1.83
23643;BME280;11998;55.788;37.572;2023-04-22T05:05:29;98292.72;;;92.40;1.84
23643;BME280;11998;55.788;37.572;2023-04-22T05:06:29;98296.63;;;93.01;1.51
23643;BME280;11998;55.788;37.572;2023-04-22T05:07:32;98285.78;;;92.47;1.58
23643;BME280;11998;55.788;37.572;2023-04-22T05:08:32;98259.78;;;87.89;2.22
23643;BME280;11998;55.788;37.572;2023-04-22T05:09:33;98282.19;;;91.83;1.80
23643;BME280;11998;55.788;37.572;2023-04-22T05:10:36;98295.81;;;92.04;1.81
23643;BME280;11998;55.788;37.572;2023-04-22T05:11:36;98288.13;;;92.39;1.49
23643;BME280;11998;55.788;37.572;2023-04-22T05:12:37;98299.56;;;93.30;1.69
23643;BME280;11998;55.788;37.572;2023-04-22T05:13:38;98289.59;;;92.57;1.52
23643;BME280;11998;55.788;37.572;2023-04-22T05:14:38;98287.28;;;91.54;1.76
23643;BME280;11998;55.788;37.572;2023-04-22T05:15:40;98296.16;;;92.27;1.75
23643;BME280;11998;55.788;37.572;2023-04-22T05:16:41;98291.94;;;92.88;1.70
23643;BME280;11998;55.788;37.572;2023-04-22T05:17:42;98281.47;;;91.56;1.92
23643;BME280;11998;55.788;37.572;2023-04-22T05:18:42;98292.72;;;92.40;1.51
23643;BME280;11998;55.788;37.572;2023-04-22T05:19:43;98283.16;;;91.49;1.88
23643;BME280;11998;55.788;37.572;2023-04-22T05:20:44;98300.59;;;92.26;1.76
23643;BME280;11998;55.788;37.572;2023-04-22T05:21:44;98271.50;;;88.88;2.12
23643;BME280;11998;55.788;37.572;2023-04-22T05:22:45;98287.66;;;90.17;1.91